TFM - Tactical Decision Aid
ID: Runway Winds: CIG/VIS Threshold:

KDEN - Denver Intl, CO, US

Updated at: 1824 UTC 19 Aug 2019
Latest TAF at: 1720 UTC 19 Aug 2019

TAF Board

Time1753Z 19/19Z 19/20Z 19/21Z 19/22Z 19/23Z 20/00Z 20/01Z 20/02Z 20/03Z 20/04Z 20/05Z 20/06Z 20/07Z>>
Type OBS PRVL PRVL PRVL PRVL PRVL PRVL PRVL PRVL PRVL PRVL PRVL PRVL PRVL
VIS 10 >6 >6 >6 >6 >6 >6 >6 >6 >6 >6 >6 >6 >6
CIG -- -- -- -- -- -- -- -- 220 220 220 -- -- --
Cover SCT SCT SCT SCT SCT SCT SCT SCT BKN BKN BKN SCT SCT SCT
FltCat VFR VFR VFR VFR VFR VFR VFR VFR VFR VFR VFR VFR VFR VFR
WX -- -- -- -- -- -- -- -- -- -- -- -- -- --
WDir 320 60 60 60 60 60 60 60 100 100 100 190 190 190
WSpd 3 8 8 8 8 8 8 8 8 8 8 8 8 8
WGst -- -- -- -- -- -- -- -- -- -- -- -- -- --

TDA Impact Legend

  None Marginal Slight Moderate High
Visibility (sm) >5 3≤X≤5 1≤X<3 0.5≤X<1 <0.5
Ceiling (100 ft) >30 10≤X≤30 4≤X<10 2≤X<4 <2
Wind Speed (kt) <15 15≤X<25 25≤X<30 ≥30
Wind Gust (kt) <15 15≤X<25 25≤X<35 ≥35
Weather No Wx Reported VCTS -TS,-FZRA TS,FZRA +TS,+FZRA
TAF
KDEN 191720Z 1918/2024 31005KT P6SM FEW120 SCT220
  FM191900 06008KT P6SM FEW120 SCT220
  FM200200 10008KT P6SM SCT120 BKN220
  FM200500 19008KT P6SM FEW120 SCT220
  FM201500 31006KT P6SM FEW120 SCT220
  FM202100 09011KT P6SM FEW080 SCT120 BKN200


METAR
KDEN 191753Z 32003KT 10SM FEW120 SCT220 34/M02 A3013 RMK AO2 SLP103 T03391022 10339 20172 58001
KDEN 191653Z 34004KT 10SM FEW120 SCT220 32/M01 A3014 RMK AO2 SLP108 T03221011 $
KDEN 191553Z 27005KT 10SM FEW080 FEW120 SCT220 29/01 A3014 RMK AO2 SLP111 T02940011 $

Radar Display
Forecast Discussion